sim
Sign-in with your pilot id or email,
or register
Callsign
Passwort

Schedule Details

Flight Number: EWG7658
Departure: Hamburg Airport (EDDH) at 10:05
Arrival: Thessaloniki International Airport (LGTS) at 12:50
Route: Eurowings Passenger Schedule. Enter filed route here before submitting Pirep.

Weather Information
Getting current METAR information for EDDH 211520Z 27009KT 230V300 3000 -RADZ BR BKN005 09/08 Q1023 TEMPO 2500 BKN004
Getting current METAR information for LGTS 211520Z 35006KT CAVOK 16/00 Q1021 NOSIG

Schedule Frequency

Route Map